Time;durP1;ratioP1;P1;durP2;ratioP2;P2;SDS_P1;SDS_P2;PMS_P1;PMS_P2;Temp;Humidity;BMP_temperature;BMP_pressure;BME280_temperature;BME280_humidity;BME280_pressure;Samples;Min_cycle;Max_cycle;Signal;HPM_P1;HPM_P2
2023/02/17 00:02:02;;;;;;;;;;;9.20;61.10;;;;;;5027086;28;19920;-79
2023/02/17 00:04:30;;;;;;;;;;;9.20;61.10;;;;;;5009380;28;19909;-79
2023/02/17 00:06:58;;;;;;;;;;;9.20;61.10;;;;;;5023028;28;19917;-78
2023/02/17 00:09:24;;;;;;;;;;;9.20;61.20;;;;;;5022657;28;19979;-76
2023/02/17 00:12:00;;;;;;;;;;;9.20;61.20;;;;;;5029047;28;19919;-78
2023/02/17 00:14:26;;;;;;;;;;;9.20;61.20;;;;;;5034096;28;20351;-76
2023/02/17 00:16:52;;;;;;;;;;;9.30;61.20;;;;;;5023119;28;20007;-77
2023/02/17 00:19:23;;;;;;;;;;;9.30;61.20;;;;;;5038802;28;20016;-76
2023/02/17 00:21:50;;;;;;;;;;;9.30;61.10;;;;;;5022253;28;19915;-76
2023/02/17 00:24:16;;;;;;;;;;;9.30;61.10;;;;;;5020241;28;19936;-77
2023/02/17 00:26:41;;;;;;;;;;;9.30;61.10;;;;;;5041607;28;19921;-77
2023/02/17 00:29:07;;;;;;;;;;;9.30;61.10;;;;;;5041815;28;19909;-77
2023/02/17 00:31:32;;;;;;;;;;;9.20;61.10;;;;;;5041364;28;19931;-77
2023/02/17 00:33:58;;;;;;;;;;;9.20;61.30;;;;;;5042983;28;19932;-77
2023/02/17 00:36:24;;;;;;;;;;;9.20;61.30;;;;;;5022423;28;19956;-76
2023/02/17 00:38:52;;;;;;;;;;;9.20;61.40;;;;;;5030345;28;19914;-76
2023/02/17 00:41:18;;;;;;;;;;;9.10;61.40;;;;;;5031991;28;19932;-77
2023/02/17 00:43:44;;;;;;;;;;;9.10;61.60;;;;;;5026125;28;19910;-78
2023/02/17 00:46:10;;;;;;;;;;;9.10;61.70;;;;;;5031665;28;19917;-77
2023/02/17 00:48:35;;;;;;;;;;;9.10;61.90;;;;;;5025826;28;19913;-77
2023/02/17 00:51:01;;;;;;;;;;;9.10;61.90;;;;;;5040603;28;19975;-76
2023/02/17 00:53:27;;;;;;;;;;;9.10;61.90;;;;;;5038094;28;19920;-76
2023/02/17 00:55:52;;;;;;;;;;;9.00;61.90;;;;;;5021427;28;19909;-77
2023/02/17 00:58:18;;;;;;;;;;;9.10;62.00;;;;;;5038530;28;19994;-77
2023/02/17 01:00:44;;;;;;;;;;;9.10;62.00;;;;;;5038289;28;19909;-77
2023/02/17 01:03:09;;;;;;;;;;;9.10;62.00;;;;;;5038507;28;19909;-78
2023/02/17 01:05:42;;;;;;;;;;;9.00;61.90;;;;;;5020160;28;19962;-77
2023/02/17 01:08:08;;;;;;;;;;;9.00;61.90;;;;;;5009555;28;20380;-77
2023/02/17 01:10:35;;;;;;;;;;;9.00;62.10;;;;;;5017693;28;20015;-77
2023/02/17 01:13:00;;;;;;;;;;;8.90;62.10;;;;;;5000902;28;19932;-77
2023/02/17 01:15:26;;;;;;;;;;;8.90;62.30;;;;;;4998279;28;19956;-77
2023/02/17 01:17:52;;;;;;;;;;;8.80;62.30;;;;;;5021117;28;19913;-76
2023/02/17 01:20:17;;;;;;;;;;;8.70;62.50;;;;;;5039439;28;20282;-76
2023/02/17 01:22:43;;;;;;;;;;;8.60;62.70;;;;;;5038773;28;20007;-77
2023/02/17 01:25:08;;;;;;;;;;;8.50;63.60;;;;;;5037912;28;19913;-76
2023/02/17 01:27:34;;;;;;;;;;;8.40;63.40;;;;;;5021002;28;20008;-77
2023/02/17 01:29:59;;;;;;;;;;;8.40;63.80;;;;;;5036560;28;19963;-77
2023/02/17 01:32:25;;;;;;;;;;;8.40;63.90;;;;;;5037864;28;20395;-77
2023/02/17 01:34:50;;;;;;;;;;;8.40;63.90;;;;;;5034908;28;19909;-77
2023/02/17 01:37:16;;;;;;;;;;;8.40;64.00;;;;;;5035509;28;19980;-77
2023/02/17 01:39:41;;;;;;;;;;;8.40;63.90;;;;;;5036864;28;19968;-77
2023/02/17 01:42:18;;;;;;;;;;;8.40;63.90;;;;;;5040596;28;19972;-77
2023/02/17 01:45:03;;;;;;;;;;;8.40;63.90;;;;;;5035278;28;20003;-77
2023/02/17 01:47:28;;;;;;;;;;;8.40;64.10;;;;;;5016258;28;19980;-77
2023/02/17 01:49:54;;;;;;;;;;;8.40;64.10;;;;;;5016291;28;19964;-76
2023/02/17 01:52:21;;;;;;;;;;;8.40;64.10;;;;;;5035584;28;20197;-77
2023/02/17 01:54:53;;;;;;;;;;;8.40;64.00;;;;;;5034944;28;19913;-76
2023/02/17 01:57:20;;;;;;;;;;;8.50;64.00;;;;;;5017652;28;20002;-76
2023/02/17 01:59:46;;;;;;;;;;;8.50;63.90;;;;;;5035723;28;19909;-76
2023/02/17 02:02:12;;;;;;;;;;;8.60;63.80;;;;;;5034180;28;19909;-77
2023/02/17 02:04:39;;;;;;;;;;;8.70;63.60;;;;;;5026194;28;19960;-77
2023/02/17 02:07:06;;;;;;;;;;;8.70;63.30;;;;;;5034427;28;19917;-77
2023/02/17 02:09:35;;;;;;;;;;;8.70;63.20;;;;;;5030840;28;19910;-75
2023/02/17 02:12:00;;;;;;;;;;;8.70;63.10;;;;;;5023589;28;20275;-76
2023/02/17 02:14:26;;;;;;;;;;;8.70;63.10;;;;;;5018072;28;19956;-76
2023/02/17 02:17:04;;;;;;;;;;;8.80;63.10;;;;;;5033928;28;19920;-77
2023/02/17 02:19:32;;;;;;;;;;;8.80;63.00;;;;;;5016714;28;19916;-77
2023/02/17 02:21:58;;;;;;;;;;;8.90;62.80;;;;;;5016376;28;20398;-77
2023/02/17 02:24:30;;;;;;;;;;;8.90;62.60;;;;;;5017790;28;19913;-77
2023/02/17 02:27:05;;;;;;;;;;;9.00;62.50;;;;;;5001128;28;20311;-77
2023/02/17 02:29:33;;;;;;;;;;;9.00;62.40;;;;;;5037234;28;20371;-77
2023/02/17 02:32:18;;;;;;;;;;;9.00;62.10;;;;;;5018804;28;19909;-78
2023/02/17 02:34:53;;;;;;;;;;;9.10;62.00;;;;;;5035808;28;19909;-77
2023/02/17 02:37:35;;;;;;;;;;;9.10;61.90;;;;;;5028146;28;19975;-77
2023/02/17 02:40:04;;;;;;;;;;;9.10;61.90;;;;;;5039180;28;19909;-77
2023/02/17 02:42:30;;;;;;;;;;;9.10;61.80;;;;;;5039434;28;20395;-77
2023/02/17 02:44:56;;;;;;;;;;;9.20;61.80;;;;;;5042907;28;19909;-76
2023/02/17 02:47:36;;;;;;;;;;;9.20;61.60;;;;;;5036883;28;20494;-78
2023/02/17 02:50:05;;;;;;;;;;;9.20;61.50;;;;;;5022975;28;19952;-77
2023/02/17 02:52:47;;;;;;;;;;;9.30;61.40;;;;;;5042796;28;19917;-78
2023/02/17 02:55:23;;;;;;;;;;;9.30;61.30;;;;;;5042931;28;19917;-78
2023/02/17 02:57:55;;;;;;;;;;;9.30;61.30;;;;;;5042102;28;19928;-77
2023/02/17 03:00:20;;;;;;;;;;;9.30;61.40;;;;;;5021214;28;19919;-77
2023/02/17 03:03:06;;;;;;;;;;;9.30;61.40;;;;;;5020918;28;19913;-77
2023/02/17 03:05:38;;;;;;;;;;;9.40;61.50;;;;;;5021453;28;19923;-78
2023/02/17 03:08:08;;;;;;;;;;;9.30;61.50;;;;;;5024737;28;19944;-77
2023/02/17 03:10:34;;;;;;;;;;;9.40;61.50;;;;;;5038552;28;19921;-77
2023/02/17 03:13:02;;;;;;;;;;;9.40;61.40;;;;;;5037864;28;19909;-77
2023/02/17 03:15:30;;;;;;;;;;;9.40;61.40;;;;;;5021762;28;20097;-78
2023/02/17 03:17:56;;;;;;;;;;;9.40;61.50;;;;;;5020004;28;19920;-77
2023/02/17 03:20:22;;;;;;;;;;;9.40;61.70;;;;;;5038004;28;20367;-76
2023/02/17 03:22:48;;;;;;;;;;;9.30;61.80;;;;;;5037516;28;19916;-76
2023/02/17 03:25:14;;;;;;;;;;;9.30;62.00;;;;;;5037516;28;19976;-76
2023/02/17 03:27:39;;;;;;;;;;;9.30;62.00;;;;;;5019701;28;19913;-78
2023/02/17 03:30:05;;;;;;;;;;;9.40;62.10;;;;;;5038909;28;19955;-77
2023/02/17 03:32:31;;;;;;;;;;;9.40;62.80;;;;;;5053377;28;19913;-78
2023/02/17 03:34:56;;;;;;;;;;;9.30;62.00;;;;;;5044306;28;19924;-77
2023/02/17 03:37:25;;;;;;;;;;;9.40;62.10;;;;;;5035878;28;19925;-78
2023/02/17 03:39:50;;;;;;;;;;;9.40;62.10;;;;;;5021967;28;19893;-78
2023/02/17 03:42:16;;;;;;;;;;;9.40;62.10;;;;;;5038036;28;19909;-77
2023/02/17 03:44:41;;;;;;;;;;;9.40;62.10;;;;;;5036916;28;19916;-77
2023/02/17 03:47:07;;;;;;;;;;;9.40;62.10;;;;;;5037751;28;19917;-76
2023/02/17 03:49:32;;;;;;;;;;;9.40;61.90;;;;;;5032148;28;20020;-77
2023/02/17 03:51:58;;;;;;;;;;;9.40;61.70;;;;;;5019758;28;19957;-76
2023/02/17 03:54:24;;;;;;;;;;;9.40;61.70;;;;;;5017012;28;19916;-76
2023/02/17 03:56:49;;;;;;;;;;;9.40;61.60;;;;;;5019401;28;19913;-76
2023/02/17 03:59:18;;;;;;;;;;;9.40;61.40;;;;;;5037819;28;19909;-77
2023/02/17 04:01:43;;;;;;;;;;;9.40;61.30;;;;;;5037715;28;19978;-77
2023/02/17 04:04:09;;;;;;;;;;;9.50;61.20;;;;;;5037764;28;19909;-78
2023/02/17 04:06:35;;;;;;;;;;;9.50;61.10;;;;;;5039892;28;19917;-77
2023/02/17 04:09:00;;;;;;;;;;;9.50;61.00;;;;;;5035623;28;19913;-77
2023/02/17 04:11:26;;;;;;;;;;;9.40;61.00;;;;;;5038154;28;20372;-77
2023/02/17 04:13:51;;;;;;;;;;;9.50;61.00;;;;;;5019666;28;19909;-78
2023/02/17 04:16:17;;;;;;;;;;;9.50;60.90;;;;;;5019751;28;19916;-77
2023/02/17 04:18:42;;;;;;;;;;;9.50;60.90;;;;;;5036466;28;19913;-77
2023/02/17 04:21:08;;;;;;;;;;;9.50;60.90;;;;;;5034563;28;19909;-77
2023/02/17 04:23:37;;;;;;;;;;;9.50;60.90;;;;;;5037495;28;20012;-77
2023/02/17 04:26:06;;;;;;;;;;;9.50;60.90;;;;;;5034764;28;20290;-77
2023/02/17 04:28:32;;;;;;;;;;;9.50;60.90;;;;;;5017448;28;20016;-77
2023/02/17 04:30:58;;;;;;;;;;;9.50;60.90;;;;;;5019234;28;19955;-77
2023/02/17 04:33:24;;;;;;;;;;;9.50;60.80;;;;;;5035010;28;19910;-78
2023/02/17 04:35:49;;;;;;;;;;;9.50;60.80;;;;;;5032689;28;19909;-77
2023/02/17 04:38:15;;;;;;;;;;;9.60;60.70;;;;;;5028609;28;19913;-78
2023/02/17 04:40:40;;;;;;;;;;;9.50;60.70;;;;;;5035510;28;19928;-75
2023/02/17 04:43:07;;;;;;;;;;;9.60;60.60;;;;;;5035042;28;19909;-76
2023/02/17 04:45:33;;;;;;;;;;;9.60;60.60;;;;;;5034754;28;19909;-77
2023/02/17 04:47:59;;;;;;;;;;;9.60;60.60;;;;;;5034507;28;20256;-77
2023/02/17 04:50:24;;;;;;;;;;;9.60;60.50;;;;;;5034651;28;19963;-77
2023/02/17 04:52:50;;;;;;;;;;;9.70;59.80;;;;;;5034526;28;19909;-77
2023/02/17 04:55:15;;;;;;;;;;;9.80;59.60;;;;;;5034524;28;19921;-76
2023/02/17 04:57:41;;;;;;;;;;;9.80;59.70;;;;;;5034276;28;19916;-77
2023/02/17 05:00:07;;;;;;;;;;;9.80;59.70;;;;;;5034611;28;19936;-76
2023/02/17 05:02:33;;;;;;;;;;;9.80;59.70;;;;;;5016186;28;20075;-77
2023/02/17 05:04:58;;;;;;;;;;;9.80;59.60;;;;;;5033279;28;19953;-77
2023/02/17 05:07:24;;;;;;;;;;;9.80;59.60;;;;;;5027953;28;19917;-77
2023/02/17 05:09:53;;;;;;;;;;;9.80;59.50;;;;;;5030088;28;19924;-77
2023/02/17 05:12:18;;;;;;;;;;;9.80;59.50;;;;;;5034610;28;19920;-77
2023/02/17 05:14:47;;;;;;;;;;;9.80;59.40;;;;;;5034796;28;19913;-76
2023/02/17 05:17:13;;;;;;;;;;;9.80;60.00;;;;;;5034432;28;20003;-76
2023/02/17 05:19:38;;;;;;;;;;;9.80;59.40;;;;;;5034133;28;20002;-77
2023/02/17 05:22:04;;;;;;;;;;;9.80;59.30;;;;;;5019358;28;19909;-77
2023/02/17 05:24:29;;;;;;;;;;;9.90;59.30;;;;;;5034472;28;19913;-76
2023/02/17 05:26:55;;;;;;;;;;;9.90;59.30;;;;;;5034330;28;19909;-77
2023/02/17 05:29:22;;;;;;;;;;;9.90;59.50;;;;;;5017288;28;19913;-77
2023/02/17 05:31:47;;;;;;;;;;;9.90;59.50;;;;;;5017799;28;20131;-77
2023/02/17 05:34:13;;;;;;;;;;;9.80;59.50;;;;;;5037240;28;19992;-77
2023/02/17 05:36:38;;;;;;;;;;;9.90;59.80;;;;;;5016070;28;19913;-76
2023/02/17 05:39:04;;;;;;;;;;;9.90;59.80;;;;;;5048464;28;19916;-76
2023/02/17 05:41:29;;;;;;;;;;;9.90;59.90;;;;;;5020306;28;19924;-77
2023/02/17 05:43:55;;;;;;;;;;;9.90;60.00;;;;;;5019408;28;19910;-77
2023/02/17 05:46:21;;;;;;;;;;;9.80;60.00;;;;;;5019920;28;19973;-77
2023/02/17 05:48:47;;;;;;;;;;;9.80;60.10;;;;;;5021963;28;19913;-76
2023/02/17 05:51:15;;;;;;;;;;;9.80;60.30;;;;;;5022815;28;19913;-77
2023/02/17 05:53:41;;;;;;;;;;;9.80;60.50;;;;;;5039583;28;19916;-77
2023/02/17 05:56:07;;;;;;;;;;;9.70;60.60;;;;;;5035716;28;20310;-77
2023/02/17 05:58:33;;;;;;;;;;;9.80;60.70;;;;;;5035950;28;19924;-77
2023/02/17 06:00:58;;;;;;;;;;;9.80;60.60;;;;;;5033666;28;20326;-77
2023/02/17 06:03:24;;;;;;;;;;;9.80;60.50;;;;;;5007567;28;20020;-77
2023/02/17 06:05:49;;;;;;;;;;;9.80;60.20;;;;;;5027917;28;19936;-77
2023/02/17 06:08:15;;;;;;;;;;;9.90;60.30;;;;;;5014667;28;19918;-78
2023/02/17 06:10:41;;;;;;;;;;;9.90;60.40;;;;;;5016139;28;19913;-78
2023/02/17 06:13:06;;;;;;;;;;;9.90;60.50;;;;;;5019149;28;19914;-77
2023/02/17 06:15:32;;;;;;;;;;;9.90;60.40;;;;;;5035133;28;20218;-77
2023/02/17 06:17:58;;;;;;;;;;;10.00;60.40;;;;;;5036398;28;19936;-77
2023/02/17 06:20:24;;;;;;;;;;;10.00;60.20;;;;;;5047085;28;19909;-77
2023/02/17 06:22:49;;;;;;;;;;;10.00;60.30;;;;;;5049116;28;19920;-77
2023/02/17 06:25:15;;;;;;;;;;;10.00;60.40;;;;;;5053899;28;19916;-77
2023/02/17 06:27:42;;;;;;;;;;;10.00;60.50;;;;;;5033956;28;19910;-77
2023/02/17 06:30:09;;;;;;;;;;;10.00;60.80;;;;;;5037857;28;19909;-78
2023/02/17 06:32:34;;;;;;;;;;;10.10;60.90;;;;;;5037527;28;19910;-78
2023/02/17 06:35:00;;;;;;;;;;;10.10;61.90;;;;;;5037759;28;19916;-78
2023/02/17 06:37:25;;;;;;;;;;;10.00;63.90;;;;;;5029318;28;19956;-78
2023/02/17 06:39:51;;;;;;;;;;;10.00;65.10;;;;;;5018839;28;20364;-77
2023/02/17 06:42:16;;;;;;;;;;;10.00;65.70;;;;;;5022577;28;19921;-78
2023/02/17 06:44:42;;;;;;;;;;;10.00;66.00;;;;;;5023450;28;20004;-76
2023/02/17 06:47:07;;;;;;;;;;;9.90;66.40;;;;;;5037695;28;19910;-77
2023/02/17 06:49:33;;;;;;;;;;;9.90;67.50;;;;;;5022678;28;19960;-77
2023/02/17 06:51:58;;;;;;;;;;;9.90;68.00;;;;;;5038565;28;19910;-77
2023/02/17 06:54:24;;;;;;;;;;;9.80;68.20;;;;;;5026132;28;19988;-77
2023/02/17 06:56:49;;;;;;;;;;;9.90;68.50;;;;;;5048018;28;19913;-78
2023/02/17 06:59:15;;;;;;;;;;;9.90;67.80;;;;;;5051431;28;19913;-76
2023/02/17 07:01:40;;;;;;;;;;;10.00;68.00;;;;;;5041447;28;20410;-78
2023/02/17 07:04:06;;;;;;;;;;;10.00;68.30;;;;;;5030006;28;19909;-77
2023/02/17 07:06:32;;;;;;;;;;;10.00;68.50;;;;;;5048092;28;19913;-77
2023/02/17 07:08:57;;;;;;;;;;;10.10;67.60;;;;;;5013942;28;20363;-75
2023/02/17 07:11:23;;;;;;;;;;;10.20;67.40;;;;;;5028710;28;20008;-77
2023/02/17 07:13:48;;;;;;;;;;;10.20;67.20;;;;;;5017330;28;19898;-77
2023/02/17 07:16:14;;;;;;;;;;;10.30;67.40;;;;;;5016898;28;20362;-78
2023/02/17 07:18:40;;;;;;;;;;;10.30;67.10;;;;;;5018916;28;20004;-78
2023/02/17 07:21:07;;;;;;;;;;;10.50;66.80;;;;;;5018013;28;19959;-77
2023/02/17 07:23:33;;;;;;;;;;;10.60;66.80;;;;;;5036794;28;19985;-78
2023/02/17 07:26:07;;;;;;;;;;;10.70;66.70;;;;;;5038488;28;19916;-77
2023/02/17 07:28:32;;;;;;;;;;;10.80;66.80;;;;;;5036322;28;20402;-79
2023/02/17 07:31:03;;;;;;;;;;;10.90;66.70;;;;;;5038964;28;19901;-77
2023/02/17 07:33:29;;;;;;;;;;;11.00;66.70;;;;;;5035065;28;19909;-77
2023/02/17 07:35:54;;;;;;;;;;;11.10;66.70;;;;;;5031522;28;19951;-77
2023/02/17 07:38:20;;;;;;;;;;;11.20;67.50;;;;;;5030967;28;19940;-77
2023/02/17 07:40:45;;;;;;;;;;;11.20;67.10;;;;;;5018107;28;20044;-77
2023/02/17 07:43:11;;;;;;;;;;;11.40;67.30;;;;;;5028196;28;19936;-77
2023/02/17 07:45:36;;;;;;;;;;;11.50;67.00;;;;;;5024898;28;20295;-77
2023/02/17 07:48:02;;;;;;;;;;;11.60;66.40;;;;;;5003010;28;19988;-76
2023/02/17 07:50:28;;;;;;;;;;;11.70;66.50;;;;;;5017570;28;19909;-77
2023/02/17 07:53:11;;;;;;;;;;;11.70;66.20;;;;;;5016316;28;19996;-79
2023/02/17 07:59:00;;;;;;;;;;;11.70;66.50;;;;;;4928218;29;19926;-77
2023/02/17 08:01:28;;;;;;;;;;;11.70;66.70;;;;;;4920413;29;19911;-76
2023/02/17 08:03:55;;;;;;;;;;;11.70;66.80;;;;;;4990588;28;19909;-77
2023/02/17 08:06:22;;;;;;;;;;;11.70;66.70;;;;;;5034394;28;19916;-77
2023/02/17 08:14:20;;;;;;;;;;;11.80;68.30;;;;;;5034566;28;19936;-77
2023/02/17 08:16:46;;;;;;;;;;;11.80;68.50;;;;;;5017301;28;19924;-78
2023/02/17 08:19:11;;;;;;;;;;;11.80;68.40;;;;;;5031412;28;19909;-77
2023/02/17 08:21:37;;;;;;;;;;;11.90;67.90;;;;;;5017426;28;19914;-77
2023/02/17 08:24:03;;;;;;;;;;;12.00;68.10;;;;;;5015341;28;20289;-77
2023/02/17 08:26:28;;;;;;;;;;;12.00;68.10;;;;;;5015345;28;19910;-77
2023/02/17 08:28:54;;;;;;;;;;;12.00;67.60;;;;;;4998010;28;19909;-75
2023/02/17 08:31:24;;;;;;;;;;;12.20;67.00;;;;;;5026006;28;19909;-77
2023/02/17 08:33:50;;;;;;;;;;;12.20;67.40;;;;;;5017085;28;19912;-76
2023/02/17 08:36:16;;;;;;;;;;;12.30;67.00;;;;;;5011321;28;19920;-76
2023/02/17 08:38:47;;;;;;;;;;;12.30;67.00;;;;;;5017866;28;19915;-78
2023/02/17 08:41:17;;;;;;;;;;;12.30;67.60;;;;;;5015628;28;19909;-80
2023/02/17 08:43:43;;;;;;;;;;;12.30;67.70;;;;;;5014496;28;19972;-76
2023/02/17 08:46:09;;;;;;;;;;;12.30;68.00;;;;;;5016943;28;19917;-77
2023/02/17 08:48:35;;;;;;;;;;;12.30;67.80;;;;;;5015504;28;19909;-76
2023/02/17 08:51:01;;;;;;;;;;;12.30;68.10;;;;;;5023715;28;19920;-77
2023/02/17 08:53:28;;;;;;;;;;;12.30;68.10;;;;;;5033485;28;20307;-77
2023/02/17 08:55:54;;;;;;;;;;;12.30;68.50;;;;;;5016283;28;19967;-76
2023/02/17 08:58:22;;;;;;;;;;;12.30;68.70;;;;;;5035084;28;19967;-75
2023/02/17 09:00:48;;;;;;;;;;;12.30;68.60;;;;;;5036436;28;19909;-75
2023/02/17 09:03:13;;;;;;;;;;;12.40;68.90;;;;;;5001489;28;19917;-76
2023/02/17 09:05:39;;;;;;;;;;;12.30;69.00;;;;;;5026468;28;19909;-76
2023/02/17 09:08:04;;;;;;;;;;;12.30;69.20;;;;;;5022233;28;20376;-77
2023/02/17 09:10:30;;;;;;;;;;;12.30;69.10;;;;;;5015835;28;19996;-77
2023/02/17 09:12:56;;;;;;;;;;;12.30;69.60;;;;;;5025325;28;19917;-75
2023/02/17 09:15:21;;;;;;;;;;;12.20;71.20;;;;;;5029104;28;20423;-77
2023/02/17 09:17:47;;;;;;;;;;;12.10;73.40;;;;;;5032631;28;19960;-77
2023/02/17 09:20:12;;;;;;;;;;;11.90;74.60;;;;;;5017562;28;19921;-76
2023/02/17 09:22:38;;;;;;;;;;;11.80;75.50;;;;;;5033689;28;19913;-76
2023/02/17 09:25:04;;;;;;;;;;;11.60;76.50;;;;;;5035047;28;19909;-77
2023/02/17 09:27:30;;;;;;;;;;;11.70;76.30;;;;;;5032310;28;20433;-77
2023/02/17 09:29:59;;;;;;;;;;;11.70;76.90;;;;;;5034110;28;19913;-77
2023/02/17 09:32:25;;;;;;;;;;;11.80;75.90;;;;;;5016696;28;19909;-77
2023/02/17 09:34:51;;;;;;;;;;;11.90;75.70;;;;;;5033884;28;20506;-76
2023/02/17 09:37:17;;;;;;;;;;;12.00;74.80;;;;;;5016121;28;19925;-77
2023/02/17 09:39:43;;;;;;;;;;;12.20;74.60;;;;;;5033927;28;19909;-76
2023/02/17 09:42:28;;;;;;;;;;;12.30;73.70;;;;;;5016436;28;20421;-77
2023/02/17 09:44:59;;;;;;;;;;;12.40;73.50;;;;;;5034269;28;20025;-76
2023/02/17 09:47:28;;;;;;;;;;;12.50;72.40;;;;;;5036122;28;19920;-75
2023/02/17 09:49:55;;;;;;;;;;;12.50;72.60;;;;;;5052695;28;19913;-77
2023/02/17 09:52:34;;;;;;;;;;;12.50;71.80;;;;;;5036764;28;19909;-77
2023/02/17 09:55:03;;;;;;;;;;;12.50;71.70;;;;;;5033540;28;19913;-76
2023/02/17 09:57:33;;;;;;;;;;;12.50;71.80;;;;;;5039218;28;19921;-76
2023/02/17 10:00:14;;;;;;;;;;;12.60;71.90;;;;;;5022781;28;20309;-76
2023/02/17 10:02:49;;;;;;;;;;;12.70;71.20;;;;;;5024731;28;19959;-77
2023/02/17 10:05:17;;;;;;;;;;;12.70;71.30;;;;;;5039991;28;19913;-77
2023/02/17 10:07:45;;;;;;;;;;;12.70;71.30;;;;;;5041661;28;19917;-78
2023/02/17 10:10:26;;;;;;;;;;;12.80;70.60;;;;;;5021705;28;20279;-77
2023/02/17 10:12:56;;;;;;;;;;;12.90;70.60;;;;;;5037643;28;19913;-76
2023/02/17 10:15:34;;;;;;;;;;;13.00;69.70;;;;;;5037498;28;19909;-77
2023/02/17 10:18:19;;;;;;;;;;;13.00;70.10;;;;;;5037808;28;19961;-77
2023/02/17 10:20:50;;;;;;;;;;;13.30;70.10;;;;;;5037924;28;20345;-78
2023/02/17 10:23:23;;;;;;;;;;;13.80;68.00;;;;;;5019095;28;20343;-77
2023/02/17 10:25:57;;;;;;;;;;;14.00;66.70;;;;;;5036508;28;20395;-77
2023/02/17 10:28:34;;;;;;;;;;;14.00;66.80;;;;;;5019075;28;19913;-77
2023/02/17 10:31:04;;;;;;;;;;;13.90;66.50;;;;;;5036249;28;19924;-77
2023/02/17 10:33:50;;;;;;;;;;;13.80;66.50;;;;;;5036472;28;19917;-76
2023/02/17 10:36:24;;;;;;;;;;;13.70;66.90;;;;;;5033660;28;19966;-76
2023/02/17 10:38:49;;;;;;;;;;;13.70;67.00;;;;;;5029261;28;19917;-77
2023/02/17 10:41:21;;;;;;;;;;;13.60;67.20;;;;;;5038954;28;19925;-77
2023/02/17 10:43:47;;;;;;;;;;;13.50;67.40;;;;;;5037114;28;19963;-77
2023/02/17 10:46:15;;;;;;;;;;;13.50;67.70;;;;;;5036518;28;20300;-76
2023/02/17 10:48:48;;;;;;;;;;;13.60;67.20;;;;;;5036851;28;19932;-77
2023/02/17 10:51:15;;;;;;;;;;;13.80;67.20;;;;;;5036959;28;19940;-75
2023/02/17 10:53:43;;;;;;;;;;;14.10;66.50;;;;;;5036352;28;20026;-77
2023/02/17 10:56:08;;;;;;;;;;;14.40;65.40;;;;;;5035886;28;20012;-77
2023/02/17 10:58:41;;;;;;;;;;;14.60;64.90;;;;;;5018243;28;19963;-77
2023/02/17 11:01:10;;;;;;;;;;;14.80;64.10;;;;;;5017632;28;19956;-77
2023/02/17 11:03:39;;;;;;;;;;;15.00;63.40;;;;;;5026009;28;19913;-77
2023/02/17 11:06:17;;;;;;;;;;;15.20;62.10;;;;;;5037005;28;19913;-76
2023/02/17 11:08:50;;;;;;;;;;;15.20;61.60;;;;;;5018540;28;19917;-76
2023/02/17 11:11:20;;;;;;;;;;;15.20;61.30;;;;;;5030748;28;19936;-78
2023/02/17 11:13:58;;;;;;;;;;;15.20;61.40;;;;;;5038557;28;19913;-77
2023/02/17 11:16:25;;;;;;;;;;;15.30;60.90;;;;;;5036255;28;19913;-75
2023/02/17 11:18:51;;;;;;;;;;;15.20;61.30;;;;;;5036845;28;19973;-77
2023/02/17 11:21:19;;;;;;;;;;;15.10;60.90;;;;;;5036257;28;20489;-77
2023/02/17 11:23:50;;;;;;;;;;;15.10;61.00;;;;;;5039427;28;19910;-76
2023/02/17 11:26:26;;;;;;;;;;;15.10;61.00;;;;;;5036121;28;20286;-76
2023/02/17 11:28:52;;;;;;;;;;;15.00;61.10;;;;;;5037643;28;20000;-76
2023/02/17 11:31:27;;;;;;;;;;;14.90;61.50;;;;;;5035658;28;20453;-77
2023/02/17 11:33:53;;;;;;;;;;;14.80;62.40;;;;;;5034458;28;20000;-78
2023/02/17 11:36:22;;;;;;;;;;;14.90;61.80;;;;;;5034546;28;20360;-77
2023/02/17 11:38:47;;;;;;;;;;;15.00;61.60;;;;;;5034430;28;19917;-76
2023/02/17 11:41:13;;;;;;;;;;;15.10;61.50;;;;;;5036512;28;20383;-77
2023/02/17 11:43:38;;;;;;;;;;;15.20;61.20;;;;;;5038471;28;19904;-76
2023/02/17 11:46:07;;;;;;;;;;;15.40;60.70;;;;;;5036538;28;20021;-76
2023/02/17 11:48:56;;;;;;;;;;;15.50;60.50;;;;;;5036068;28;20268;-76
2023/02/17 11:51:31;;;;;;;;;;;15.50;60.20;;;;;;5026982;28;19929;-77
2023/02/17 11:54:06;;;;;;;;;;;15.50;60.30;;;;;;5047295;28;19914;-76
2023/02/17 11:56:33;;;;;;;;;;;15.50;60.60;;;;;;5037513;28;19913;-76
2023/02/17 11:59:06;;;;;;;;;;;15.40;60.90;;;;;;5037798;28;20395;-77
2023/02/17 12:01:41;;;;;;;;;;;15.40;60.90;;;;;;5040248;28;19909;-76
2023/02/17 12:04:25;;;;;;;;;;;15.40;60.60;;;;;;5041776;28;19984;-76
2023/02/17 12:07:02;;;;;;;;;;;15.40;60.70;;;;;;5036553;28;19972;-75
2023/02/17 12:09:42;;;;;;;;;;;15.40;60.60;;;;;;5037200;28;19921;-78
2023/02/17 12:12:25;;;;;;;;;;;15.30;61.00;;;;;;5030306;28;19920;-76
2023/02/17 12:14:50;;;;;;;;;;;15.30;61.10;;;;;;5018078;28;19920;-77
2023/02/17 12:17:16;;;;;;;;;;;15.20;61.50;;;;;;5020199;28;19917;-78
2023/02/17 12:19:52;;;;;;;;;;;15.30;61.90;;;;;;5035591;28;19913;-78
2023/02/17 12:22:21;;;;;;;;;;;15.60;61.60;;;;;;5017928;28;19909;-76
2023/02/17 12:25:19;;;;;;;;;;;15.80;60.10;;;;;;5014356;28;19917;-75
2023/02/17 12:27:44;;;;;;;;;;;15.80;60.20;;;;;;5015971;28;19936;-76
2023/02/17 12:30:20;;;;;;;;;;;15.60;61.10;;;;;;5015103;28;20354;-75
2023/02/17 12:32:59;;;;;;;;;;;15.40;61.50;;;;;;5030057;28;19913;-76
2023/02/17 12:35:30;;;;;;;;;;;15.30;62.30;;;;;;5035930;28;19923;-77
2023/02/17 12:37:59;;;;;;;;;;;15.30;63.00;;;;;;5025819;28;20564;-76
2023/02/17 12:40:24;;;;;;;;;;;15.20;63.50;;;;;;5034415;28;20004;-78
2023/02/17 12:42:53;;;;;;;;;;;15.30;63.40;;;;;;5034012;28;20383;-78
2023/02/17 12:45:20;;;;;;;;;;;15.20;63.40;;;;;;5016925;28;20285;-76
2023/02/17 12:47:54;;;;;;;;;;;15.20;63.70;;;;;;4996864;28;19919;-76
2023/02/17 12:50:31;;;;;;;;;;;15.10;63.80;;;;;;5014114;28;19967;-75
2023/02/17 12:52:58;;;;;;;;;;;15.00;64.20;;;;;;5014533;28;19916;-76
2023/02/17 12:55:26;;;;;;;;;;;14.90;64.80;;;;;;5013917;28;19932;-76
2023/02/17 12:58:00;;;;;;;;;;;14.90;65.00;;;;;;5016966;28;19914;-76
2023/02/17 13:00:25;;;;;;;;;;;14.80;65.50;;;;;;4996529;28;19917;-76
2023/02/17 13:02:51;;;;;;;;;;;14.80;65.40;;;;;;5013904;28;19909;-77
2023/02/17 13:05:19;;;;;;;;;;;14.80;65.50;;;;;;5019724;28;19913;-78
2023/02/17 13:07:49;;;;;;;;;;;14.70;65.80;;;;;;5028461;28;19965;-77
2023/02/17 13:10:28;;;;;;;;;;;14.80;65.80;;;;;;5016858;28;19975;-76
2023/02/17 13:12:58;;;;;;;;;;;14.80;65.20;;;;;;5016205;28;20322;-76
2023/02/17 13:15:25;;;;;;;;;;;14.70;65.40;;;;;;5014963;28;19920;-76
2023/02/17 13:18:02;;;;;;;;;;;14.60;65.80;;;;;;5013782;28;19984;-77
2023/02/17 13:20:39;;;;;;;;;;;14.60;66.10;;;;;;5021207;28;19910;-76
2023/02/17 13:23:07;;;;;;;;;;;14.60;66.60;;;;;;5034016;28;19909;-77
2023/02/17 13:25:33;;;;;;;;;;;14.60;66.70;;;;;;5033603;28;19932;-75
2023/02/17 13:28:00;;;;;;;;;;;14.60;67.00;;;;;;5033336;28;19978;-78
2023/02/17 13:30:26;;;;;;;;;;;14.60;67.20;;;;;;5033613;28;19922;-76
2023/02/17 13:33:02;;;;;;;;;;;14.60;67.30;;;;;;5034608;28;19939;-77
2023/02/17 13:35:32;;;;;;;;;;;14.50;67.70;;;;;;5033333;28;19913;-78
2023/02/17 13:37:57;;;;;;;;;;;14.40;68.00;;;;;;5023943;28;20387;-75
2023/02/17 13:40:23;;;;;;;;;;;14.40;68.30;;;;;;5013028;28;20001;-75
2023/02/17 13:42:49;;;;;;;;;;;14.40;68.10;;;;;;5014219;28;20438;-75
2023/02/17 13:45:19;;;;;;;;;;;14.30;68.50;;;;;;5026110;28;19964;-75
2023/02/17 13:47:46;;;;;;;;;;;14.20;69.10;;;;;;5034009;28;19909;-76
2023/02/17 13:50:44;;;;;;;;;;;14.20;69.30;;;;;;5023268;28;19920;-77
2023/02/17 13:53:29;;;;;;;;;;;14.10;69.70;;;;;;4991289;28;19909;-74
2023/02/17 13:55:59;;;;;;;;;;;14.00;69.80;;;;;;5026096;28;19960;-75
2023/02/17 13:58:35;;;;;;;;;;;13.90;70.10;;;;;;5012634;28;19935;-75
2023/02/17 14:01:01;;;;;;;;;;;13.80;70.90;;;;;;5030002;28;19920;-76
2023/02/17 14:03:33;;;;;;;;;;;13.70;71.40;;;;;;5032837;28;19909;-76
2023/02/17 14:06:00;;;;;;;;;;;13.70;71.60;;;;;;5032176;28;19909;-77
2023/02/17 14:08:32;;;;;;;;;;;13.70;71.80;;;;;;5020808;28;20340;-76
2023/02/17 14:11:01;;;;;;;;;;;13.70;71.40;;;;;;5013452;28;19987;-76
2023/02/17 14:13:27;;;;;;;;;;;13.80;71.30;;;;;;5013498;28;20351;-76
2023/02/17 14:15:55;;;;;;;;;;;13.90;70.90;;;;;;5021501;28;19952;-76
2023/02/17 14:18:32;;;;;;;;;;;13.80;71.20;;;;;;5033110;28;19917;-77
2023/02/17 14:21:04;;;;;;;;;;;13.80;71.10;;;;;;5034327;28;19910;-76
2023/02/17 14:23:39;;;;;;;;;;;13.80;71.20;;;;;;5034802;28;19909;-76
2023/02/17 14:26:09;;;;;;;;;;;13.80;71.20;;;;;;5035499;28;19916;-77
2023/02/17 14:28:34;;;;;;;;;;;13.80;71.20;;;;;;5038174;28;19909;-77
2023/02/17 14:31:07;;;;;;;;;;;13.80;71.30;;;;;;5034256;28;19976;-77
2023/02/17 14:33:32;;;;;;;;;;;13.80;71.20;;;;;;5033764;28;20298;-76
2023/02/17 14:35:59;;;;;;;;;;;13.80;70.90;;;;;;5021784;28;19963;-75
2023/02/17 14:38:26;;;;;;;;;;;13.80;71.20;;;;;;5028183;28;19913;-76
2023/02/17 14:40:54;;;;;;;;;;;13.80;71.30;;;;;;5035717;28;20378;-75